Time,TemperatureF,DewpointF,PressureIn,WindDirection,WindDirectionDegrees,WindSpeedMPH,WindSpeedGustMPH,Humidity,HourlyPrecipIn,Conditions,Clouds,dailyrainin,SoftwareType,DateUTC
2013-11-18 07:22:00,42.0,36.0,-100.00,WSW,248,8.0,22.0,78,0.00,,,0.00,,2013-11-18 12:22:00,
2013-11-18 07:52:00,42.0,36.0,-100.00,West,270,9.0,12.0,78,0.00,,,0.00,,2013-11-18 12:52:00,
2013-11-18 08:22:00,41.0,35.0,-100.00,WSW,248,8.0,10.0,79,0.00,,,0.00,,2013-11-18 13:22:00,
2013-11-18 08:52:00,41.0,36.0,-100.00,WSW,248,9.0,15.0,82,0.00,,,0.00,,2013-11-18 13:52:00,
2013-11-18 09:22:00,41.0,36.0,-100.00,WSW,248,13.0,16.0,81,0.00,,,0.00,,2013-11-18 14:22:00,
2013-11-18 09:52:00,41.0,36.0,-100.00,West,270,8.0,14.0,81,0.00,,,0.00,,2013-11-18 14:52:00,
2013-11-18 10:22:00,41.0,35.0,-100.00,West,270,10.0,17.0,79,0.00,,,0.00,,2013-11-18 15:22:00,
2013-11-18 10:54:00,40.0,34.0,-100.00,WSW,248,14.0,26.0,78,0.00,,,0.00,,2013-11-18 15:54:00,
2013-11-18 11:23:00,39.0,32.0,-100.00,WSW,248,14.0,18.0,77,0.00,,,0.00,,2013-11-18 16:23:00,
2013-11-18 11:53:00,40.0,33.0,-100.00,WSW,248,13.0,17.0,76,0.00,,,0.00,,2013-11-18 16:53:00,
2013-11-18 12:22:00,38.0,33.0,-100.00,West,270,7.0,10.0,81,0.00,,,0.00,,2013-11-18 17:22:00,
2013-11-18 12:52:00,38.0,32.0,-100.00,West,270,15.0,20.0,78,0.00,,,0.00,,2013-11-18 17:52:00,
2013-11-18 13:23:00,37.0,32.0,-100.00,West,270,8.0,16.0,82,0.00,,,0.00,,2013-11-18 18:23:00,
2013-11-18 13:52:00,36.0,31.0,-100.00,WSW,248,14.0,30.0,83,0.00,,,0.00,,2013-11-18 18:52:00,
2013-11-18 14:22:00,36.0,29.0,-100.00,West,270,16.0,25.0,77,0.00,,,0.00,,2013-11-18 19:22:00,
2013-11-18 15:22:00,36.0,30.0,-100.00,West,270,15.0,23.0,79,0.00,,,0.00,,2013-11-18 20:22:00,
2013-11-18 15:52:00,35.0,29.0,-100.00,WNW,293,10.0,23.0,79,0.00,,,0.00,,2013-11-18 20:52:00,
2013-11-18 16:22:00,35.0,28.0,-100.00,West,270,12.0,15.0,74,0.00,,,0.00,,2013-11-18 21:22:00,
2013-11-18 16:54:00,35.0,27.0,-100.00,West,270,10.0,16.0,71,0.00,,,0.00,,2013-11-18 21:54:00,
2013-11-18 17:22:00,35.0,27.0,-100.00,WSW,248,13.0,16.0,71,0.00,,,0.00,,2013-11-18 22:22:00,
2013-11-18 17:52:00,35.0,27.0,-100.00,WSW,248,10.0,18.0,71,0.00,,,0.00,,2013-11-18 22:52:00,
2013-11-18 18:22:00,35.0,27.0,-100.00,West,270,8.0,23.0,72,0.00,,,0.00,,2013-11-18 23:22:00,
2013-11-18 18:52:00,35.0,27.0,-100.00,WSW,248,9.0,14.0,72,0.00,,,0.00,,2013-11-18 23:52:00,
2013-11-18 19:21:00,35.0,27.0,-100.00,WNW,293,8.0,10.0,72,0.00,,,0.00,,2013-11-19 00:21:00,
2013-11-18 19:52:00,35.0,27.0,-100.00,West,270,8.0,10.0,73,0.00,,,0.00,,2013-11-19 00:52:00,
2013-11-18 20:21:00,35.0,27.0,-100.00,WNW,293,7.0,10.0,73,0.00,,,0.00,,2013-11-19 01:21:00,
2013-11-18 20:52:00,35.0,27.0,-100.00,West,270,9.0,15.0,72,0.00,,,0.00,,2013-11-19 01:52:00,
2013-11-18 21:22:00,35.0,27.0,-100.00,West,270,8.0,9.0,71,0.00,,,0.00,,2013-11-19 02:22:00,
2013-11-18 21:52:00,35.0,27.0,-100.00,WNW,293,6.0,6.0,71,0.00,,,0.00,,2013-11-19 02:52:00,
2013-11-18 22:22:00,35.0,27.0,-100.00,West,270,7.0,10.0,71,0.00,,,0.00,,2013-11-19 03:22:00,
2013-11-18 22:54:00,35.0,27.0,-100.00,West,270,6.0,7.0,73,0.00,,,0.00,,2013-11-19 03:54:00,
2013-11-18 23:13:00,35.0,27.0,-100.00,West,270,6.0,9.0,72,0.00,,,0.00,,2013-11-19 04:13:00,
2013-11-18 23:24:00,35.0,27.0,-100.00,WNW,293,7.0,8.0,72,0.00,,,0.00,,2013-11-19 04:24:00,
2013-11-18 23:52:00,35.0,27.0,-100.00,West,270,2.0,3.0,73,0.00,,,0.00,,2013-11-19 04:52:00,